sensor_id;sensor_type;location;lat;lon;timestamp;P1;durP1;ratioP1;P2;durP2;ratioP2
49460;SDS011;35355;49.198;-0.368;2023-06-22T00:02:13;4.70;;;2.40;;
49460;SDS011;35355;49.198;-0.368;2023-06-22T00:04:38;2.97;;;1.83;;
49460;SDS011;35355;49.198;-0.368;2023-06-22T00:07:10;4.28;;;2.13;;
49460;SDS011;35355;49.198;-0.368;2023-06-22T00:09:40;7.45;;;2.83;;
49460;SDS011;35355;49.198;-0.368;2023-06-22T00:12:06;7.72;;;2.50;;
49460;SDS011;35355;49.198;-0.368;2023-06-22T00:14:32;8.35;;;3.05;;
49460;SDS011;35355;49.198;-0.368;2023-06-22T00:16:57;6.15;;;2.50;;
49460;SDS011;35355;49.198;-0.368;2023-06-22T00:19:24;6.18;;;2.75;;
49460;SDS011;35355;49.198;-0.368;2023-06-22T00:21:52;6.20;;;2.78;;
49460;SDS011;35355;49.198;-0.368;2023-06-22T00:24:21;5.90;;;2.75;;
49460;SDS011;35355;49.198;-0.368;2023-06-22T00:26:51;4.10;;;2.42;;
49460;SDS011;35355;49.198;-0.368;2023-06-22T00:29:17;5.88;;;2.25;;
49460;SDS011;35355;49.198;-0.368;2023-06-22T00:31:43;7.78;;;2.97;;
49460;SDS011;35355;49.198;-0.368;2023-06-22T00:34:09;9.52;;;3.22;;
49460;SDS011;35355;49.198;-0.368;2023-06-22T00:36:34;9.85;;;3.25;;
49460;SDS011;35355;49.198;-0.368;2023-06-22T00:39:00;4.78;;;2.67;;
49460;SDS011;35355;49.198;-0.368;2023-06-22T00:41:31;7.25;;;3.08;;
49460;SDS011;35355;49.198;-0.368;2023-06-22T00:43:57;6.82;;;2.75;;
49460;SDS011;35355;49.198;-0.368;2023-06-22T00:46:23;7.30;;;2.63;;
49460;SDS011;35355;49.198;-0.368;2023-06-22T00:48:50;12.63;;;3.10;;
49460;SDS011;35355;49.198;-0.368;2023-06-22T00:51:16;4.53;;;3.13;;
49460;SDS011;35355;49.198;-0.368;2023-06-22T00:53:42;7.88;;;3.65;;
49460;SDS011;35355;49.198;-0.368;2023-06-22T00:56:08;9.82;;;3.20;;
49460;SDS011;35355;49.198;-0.368;2023-06-22T00:58:34;6.65;;;2.63;;
49460;SDS011;35355;49.198;-0.368;2023-06-22T01:01:08;9.15;;;3.75;;
49460;SDS011;35355;49.198;-0.368;2023-06-22T01:03:33;4.78;;;2.58;;
49460;SDS011;35355;49.198;-0.368;2023-06-22T01:06:02;9.82;;;3.00;;
49460;SDS011;35355;49.198;-0.368;2023-06-22T01:08:40;4.85;;;2.53;;
49460;SDS011;35355;49.198;-0.368;2023-06-22T01:11:28;11.27;;;3.25;;
49460;SDS011;35355;49.198;-0.368;2023-06-22T01:17:06;7.55;;;2.85;;
49460;SDS011;35355;49.198;-0.368;2023-06-22T01:22:06;7.70;;;3.05;;
49460;SDS011;35355;49.198;-0.368;2023-06-22T01:24:44;8.93;;;3.47;;
49460;SDS011;35355;49.198;-0.368;2023-06-22T01:30:06;9.35;;;3.30;;
49460;SDS011;35355;49.198;-0.368;2023-06-22T01:32:36;7.28;;;3.65;;
49460;SDS011;35355;49.198;-0.368;2023-06-22T01:35:04;7.00;;;3.38;;
49460;SDS011;35355;49.198;-0.368;2023-06-22T01:37:37;6.90;;;4.10;;
49460;SDS011;35355;49.198;-0.368;2023-06-22T01:40:10;6.78;;;3.55;;
49460;SDS011;35355;49.198;-0.368;2023-06-22T01:42:45;8.93;;;3.13;;
49460;SDS011;35355;49.198;-0.368;2023-06-22T01:45:11;8.90;;;2.97;;
49460;SDS011;35355;49.198;-0.368;2023-06-22T01:47:38;14.13;;;3.50;;
49460;SDS011;35355;49.198;-0.368;2023-06-22T01:50:04;8.32;;;3.72;;
49460;SDS011;35355;49.198;-0.368;2023-06-22T01:52:31;8.88;;;3.00;;
49460;SDS011;35355;49.198;-0.368;2023-06-22T01:54:59;8.80;;;2.97;;
49460;SDS011;35355;49.198;-0.368;2023-06-22T01:57:25;7.45;;;3.25;;
49460;SDS011;35355;49.198;-0.368;2023-06-22T02:02:17;13.30;;;3.40;;
49460;SDS011;35355;49.198;-0.368;2023-06-22T02:05:03;14.63;;;3.75;;
49460;SDS011;35355;49.198;-0.368;2023-06-22T02:07:33;8.52;;;3.33;;
49460;SDS011;35355;49.198;-0.368;2023-06-22T02:10:04;13.75;;;3.50;;
49460;SDS011;35355;49.198;-0.368;2023-06-22T02:12:32;8.60;;;3.40;;
49460;SDS011;35355;49.198;-0.368;2023-06-22T02:14:59;11.52;;;4.25;;
49460;SDS011;35355;49.198;-0.368;2023-06-22T02:17:26;10.40;;;3.88;;
49460;SDS011;35355;49.198;-0.368;2023-06-22T02:19:51;13.52;;;3.70;;
49460;SDS011;35355;49.198;-0.368;2023-06-22T02:22:17;21.42;;;4.45;;
49460;SDS011;35355;49.198;-0.368;2023-06-22T02:24:45;10.98;;;3.78;;
49460;SDS011;35355;49.198;-0.368;2023-06-22T02:27:13;17.85;;;4.10;;
49460;SDS011;35355;49.198;-0.368;2023-06-22T02:29:41;12.55;;;4.30;;
49460;SDS011;35355;49.198;-0.368;2023-06-22T02:32:07;8.60;;;3.92;;
49460;SDS011;35355;49.198;-0.368;2023-06-22T02:34:34;14.45;;;3.70;;
49460;SDS011;35355;49.198;-0.368;2023-06-22T02:37:04;11.45;;;4.13;;
49460;SDS011;35355;49.198;-0.368;2023-06-22T02:39:33;13.95;;;4.25;;
49460;SDS011;35355;49.198;-0.368;2023-06-22T02:41:59;12.30;;;3.90;;
49460;SDS011;35355;49.198;-0.368;2023-06-22T02:44:24;8.35;;;3.88;;
49460;SDS011;35355;49.198;-0.368;2023-06-22T02:46:50;16.50;;;3.65;;
49460;SDS011;35355;49.198;-0.368;2023-06-22T02:49:15;18.75;;;4.30;;
49460;SDS011;35355;49.198;-0.368;2023-06-22T02:51:45;8.57;;;4.15;;
49460;SDS011;35355;49.198;-0.368;2023-06-22T02:54:16;10.80;;;3.88;;
49460;SDS011;35355;49.198;-0.368;2023-06-22T02:56:42;10.90;;;3.58;;
49460;SDS011;35355;49.198;-0.368;2023-06-22T02:59:11;17.05;;;4.03;;
49460;SDS011;35355;49.198;-0.368;2023-06-22T03:01:37;9.98;;;3.65;;
49460;SDS011;35355;49.198;-0.368;2023-06-22T03:04:05;9.63;;;3.53;;
49460;SDS011;35355;49.198;-0.368;2023-06-22T03:06:32;7.10;;;3.75;;
49460;SDS011;35355;49.198;-0.368;2023-06-22T03:09:05;12.88;;;4.45;;
49460;SDS011;35355;49.198;-0.368;2023-06-22T03:11:49;13.25;;;3.78;;
49460;SDS011;35355;49.198;-0.368;2023-06-22T03:14:14;16.83;;;3.58;;
49460;SDS011;35355;49.198;-0.368;2023-06-22T03:16:39;19.20;;;3.40;;
49460;SDS011;35355;49.198;-0.368;2023-06-22T03:19:05;10.60;;;2.85;;
49460;SDS011;35355;49.198;-0.368;2023-06-22T03:21:31;17.10;;;3.58;;
49460;SDS011;35355;49.198;-0.368;2023-06-22T03:23:57;12.57;;;2.75;;
49460;SDS011;35355;49.198;-0.368;2023-06-22T03:26:24;9.45;;;2.75;;
49460;SDS011;35355;49.198;-0.368;2023-06-22T03:28:51;8.13;;;2.83;;
49460;SDS011;35355;49.198;-0.368;2023-06-22T03:31:17;7.53;;;2.80;;
49460;SDS011;35355;49.198;-0.368;2023-06-22T03:33:46;7.10;;;2.67;;
49460;SDS011;35355;49.198;-0.368;2023-06-22T03:36:13;14.15;;;2.88;;
49460;SDS011;35355;49.198;-0.368;2023-06-22T03:38:38;10.60;;;2.85;;
49460;SDS011;35355;49.198;-0.368;2023-06-22T03:41:07;12.65;;;3.70;;
49460;SDS011;35355;49.198;-0.368;2023-06-22T03:43:32;8.07;;;2.13;;
49460;SDS011;35355;49.198;-0.368;2023-06-22T03:45:58;5.30;;;2.97;;
49460;SDS011;35355;49.198;-0.368;2023-06-22T03:48:23;9.02;;;2.92;;
49460;SDS011;35355;49.198;-0.368;2023-06-22T03:50:49;6.82;;;2.42;;
49460;SDS011;35355;49.198;-0.368;2023-06-22T03:53:14;15.23;;;3.78;;
49460;SDS011;35355;49.198;-0.368;2023-06-22T03:55:49;9.32;;;3.05;;
49460;SDS011;35355;49.198;-0.368;2023-06-22T03:58:16;8.40;;;2.20;;
49460;SDS011;35355;49.198;-0.368;2023-06-22T04:00:41;4.57;;;2.40;;
49460;SDS011;35355;49.198;-0.368;2023-06-22T04:03:07;7.78;;;2.20;;
49460;SDS011;35355;49.198;-0.368;2023-06-22T04:05:33;7.85;;;2.42;;
49460;SDS011;35355;49.198;-0.368;2023-06-22T04:07:58;8.52;;;2.80;;
49460;SDS011;35355;49.198;-0.368;2023-06-22T04:10:24;10.95;;;2.38;;
49460;SDS011;35355;49.198;-0.368;2023-06-22T04:12:49;6.32;;;1.88;;
49460;SDS011;35355;49.198;-0.368;2023-06-22T04:15:17;5.72;;;1.55;;
49460;SDS011;35355;49.198;-0.368;2023-06-22T04:17:45;12.70;;;2.92;;
49460;SDS011;35355;49.198;-0.368;2023-06-22T04:20:11;6.57;;;2.20;;
49460;SDS011;35355;49.198;-0.368;2023-06-22T04:22:36;11.38;;;2.47;;
49460;SDS011;35355;49.198;-0.368;2023-06-22T04:25:02;8.75;;;3.22;;
49460;SDS011;35355;49.198;-0.368;2023-06-22T04:27:27;14.55;;;2.72;;
49460;SDS011;35355;49.198;-0.368;2023-06-22T04:29:52;12.23;;;2.45;;
49460;SDS011;35355;49.198;-0.368;2023-06-22T04:32:21;7.95;;;2.20;;
49460;SDS011;35355;49.198;-0.368;2023-06-22T04:34:49;11.63;;;1.98;;
49460;SDS011;35355;49.198;-0.368;2023-06-22T04:37:14;4.68;;;2.45;;
49460;SDS011;35355;49.198;-0.368;2023-06-22T04:39:41;5.82;;;1.70;;
49460;SDS011;35355;49.198;-0.368;2023-06-22T04:42:07;6.25;;;1.90;;
49460;SDS011;35355;49.198;-0.368;2023-06-22T04:44:33;9.40;;;2.92;;
49460;SDS011;35355;49.198;-0.368;2023-06-22T04:46:59;6.03;;;2.35;;
49460;SDS011;35355;49.198;-0.368;2023-06-22T04:49:27;8.48;;;2.08;;
49460;SDS011;35355;49.198;-0.368;2023-06-22T04:51:58;8.77;;;2.88;;
49460;SDS011;35355;49.198;-0.368;2023-06-22T04:54:24;5.57;;;1.90;;
49460;SDS011;35355;49.198;-0.368;2023-06-22T04:56:49;6.43;;;2.30;;
49460;SDS011;35355;49.198;-0.368;2023-06-22T04:59:24;6.57;;;2.00;;
49460;SDS011;35355;49.198;-0.368;2023-06-22T05:01:53;6.70;;;2.33;;
49460;SDS011;35355;49.198;-0.368;2023-06-22T05:04:19;8.93;;;2.50;;
49460;SDS011;35355;49.198;-0.368;2023-06-22T05:06:44;7.00;;;1.98;;
49460;SDS011;35355;49.198;-0.368;2023-06-22T05:09:10;5.75;;;2.25;;
49460;SDS011;35355;49.198;-0.368;2023-06-22T05:11:37;7.72;;;2.20;;
49460;SDS011;35355;49.198;-0.368;2023-06-22T05:14:03;3.20;;;2.22;;
49460;SDS011;35355;49.198;-0.368;2023-06-22T05:16:28;5.38;;;2.63;;
49460;SDS011;35355;49.198;-0.368;2023-06-22T05:18:54;3.97;;;2.20;;
49460;SDS011;35355;49.198;-0.368;2023-06-22T05:21:24;6.43;;;2.05;;
49460;SDS011;35355;49.198;-0.368;2023-06-22T05:23:50;6.05;;;1.50;;
49460;SDS011;35355;49.198;-0.368;2023-06-22T05:26:18;3.47;;;1.60;;
49460;SDS011;35355;49.198;-0.368;2023-06-22T05:28:44;3.38;;;1.70;;
49460;SDS011;35355;49.198;-0.368;2023-06-22T05:31:13;4.80;;;1.88;;
49460;SDS011;35355;49.198;-0.368;2023-06-22T05:33:39;3.58;;;1.80;;
49460;SDS011;35355;49.198;-0.368;2023-06-22T05:36:05;6.95;;;1.88;;
49460;SDS011;35355;49.198;-0.368;2023-06-22T05:38:30;5.32;;;2.15;;
49460;SDS011;35355;49.198;-0.368;2023-06-22T05:40:56;2.45;;;1.23;;
49460;SDS011;35355;49.198;-0.368;2023-06-22T05:43:21;2.25;;;1.42;;
49460;SDS011;35355;49.198;-0.368;2023-06-22T05:45:46;5.90;;;2.13;;
49460;SDS011;35355;49.198;-0.368;2023-06-22T05:48:12;3.90;;;1.52;;
49460;SDS011;35355;49.198;-0.368;2023-06-22T05:50:37;3.55;;;1.50;;
49460;SDS011;35355;49.198;-0.368;2023-06-22T05:53:03;3.55;;;1.40;;
49460;SDS011;35355;49.198;-0.368;2023-06-22T05:55:28;2.42;;;1.77;;
49460;SDS011;35355;49.198;-0.368;2023-06-22T05:57:53;3.65;;;1.58;;
49460;SDS011;35355;49.198;-0.368;2023-06-22T06:00:19;4.72;;;1.48;;
49460;SDS011;35355;49.198;-0.368;2023-06-22T06:02:45;3.47;;;1.83;;
49460;SDS011;35355;49.198;-0.368;2023-06-22T06:05:11;5.63;;;1.90;;
49460;SDS011;35355;49.198;-0.368;2023-06-22T06:07:38;3.22;;;1.52;;
49460;SDS011;35355;49.198;-0.368;2023-06-22T06:10:04;9.25;;;1.50;;
49460;SDS011;35355;49.198;-0.368;2023-06-22T06:12:31;3.78;;;1.77;;
49460;SDS011;35355;49.198;-0.368;2023-06-22T06:14:56;3.75;;;1.75;;
49460;SDS011;35355;49.198;-0.368;2023-06-22T06:17:22;4.07;;;1.88;;
49460;SDS011;35355;49.198;-0.368;2023-06-22T06:19:47;4.00;;;2.00;;
49460;SDS011;35355;49.198;-0.368;2023-06-22T06:22:12;4.03;;;1.60;;
49460;SDS011;35355;49.198;-0.368;2023-06-22T06:24:38;3.38;;;1.70;;
49460;SDS011;35355;49.198;-0.368;2023-06-22T06:27:03;4.90;;;1.50;;
49460;SDS011;35355;49.198;-0.368;2023-06-22T06:29:30;3.83;;;1.88;;
49460;SDS011;35355;49.198;-0.368;2023-06-22T06:31:55;3.80;;;1.60;;
49460;SDS011;35355;49.198;-0.368;2023-06-22T06:34:21;6.00;;;1.92;;
49460;SDS011;35355;49.198;-0.368;2023-06-22T06:36:47;9.35;;;1.85;;
49460;SDS011;35355;49.198;-0.368;2023-06-22T06:39:15;3.88;;;1.70;;
49460;SDS011;35355;49.198;-0.368;2023-06-22T06:41:43;4.10;;;1.65;;
49460;SDS011;35355;49.198;-0.368;2023-06-22T06:44:08;5.38;;;1.83;;
49460;SDS011;35355;49.198;-0.368;2023-06-22T06:46:44;10.10;;;2.50;;
49460;SDS011;35355;49.198;-0.368;2023-06-22T06:49:09;5.90;;;1.98;;
49460;SDS011;35355;49.198;-0.368;2023-06-22T06:51:35;4.85;;;2.13;;
49460;SDS011;35355;49.198;-0.368;2023-06-22T06:54:01;5.03;;;1.63;;
49460;SDS011;35355;49.198;-0.368;2023-06-22T06:56:28;7.55;;;3.17;;
49460;SDS011;35355;49.198;-0.368;2023-06-22T06:58:54;5.38;;;2.20;;
49460;SDS011;35355;49.198;-0.368;2023-06-22T07:01:20;6.43;;;2.15;;
49460;SDS011;35355;49.198;-0.368;2023-06-22T07:03:45;6.28;;;2.35;;
49460;SDS011;35355;49.198;-0.368;2023-06-22T07:06:11;7.85;;;2.15;;
49460;SDS011;35355;49.198;-0.368;2023-06-22T07:08:36;5.40;;;2.20;;
49460;SDS011;35355;49.198;-0.368;2023-06-22T07:11:02;2.88;;;1.80;;
49460;SDS011;35355;49.198;-0.368;2023-06-22T07:13:27;6.53;;;1.90;;
49460;SDS011;35355;49.198;-0.368;2023-06-22T07:15:56;8.35;;;2.72;;
49460;SDS011;35355;49.198;-0.368;2023-06-22T07:18:22;6.97;;;2.55;;
49460;SDS011;35355;49.198;-0.368;2023-06-22T07:20:51;5.85;;;1.80;;
49460;SDS011;35355;49.198;-0.368;2023-06-22T07:23:17;13.32;;;2.58;;
49460;SDS011;35355;49.198;-0.368;2023-06-22T07:25:45;3.90;;;2.10;;
49460;SDS011;35355;49.198;-0.368;2023-06-22T07:28:14;7.07;;;2.80;;
49460;SDS011;35355;49.198;-0.368;2023-06-22T07:30:40;4.78;;;1.98;;
49460;SDS011;35355;49.198;-0.368;2023-06-22T07:33:05;7.97;;;2.30;;
49460;SDS011;35355;49.198;-0.368;2023-06-22T07:35:33;9.15;;;2.40;;
49460;SDS011;35355;49.198;-0.368;2023-06-22T07:38:01;8.82;;;2.47;;
49460;SDS011;35355;49.198;-0.368;2023-06-22T07:40:27;6.68;;;2.88;;
49460;SDS011;35355;49.198;-0.368;2023-06-22T07:42:52;5.53;;;2.55;;
49460;SDS011;35355;49.198;-0.368;2023-06-22T07:45:18;4.40;;;2.55;;
49460;SDS011;35355;49.198;-0.368;2023-06-22T07:47:47;8.50;;;2.33;;
49460;SDS011;35355;49.198;-0.368;2023-06-22T07:50:12;3.25;;;2.30;;
49460;SDS011;35355;49.198;-0.368;2023-06-22T07:52:38;6.18;;;2.15;;
49460;SDS011;35355;49.198;-0.368;2023-06-22T07:55:03;7.43;;;2.65;;
49460;SDS011;35355;49.198;-0.368;2023-06-22T07:57:29;6.22;;;1.90;;
49460;SDS011;35355;49.198;-0.368;2023-06-22T08:00:07;9.70;;;2.17;;
49460;SDS011;35355;49.198;-0.368;2023-06-22T08:02:43;6.15;;;2.33;;
49460;SDS011;35355;49.198;-0.368;2023-06-22T08:05:12;6.70;;;2.72;;
49460;SDS011;35355;49.198;-0.368;2023-06-22T08:07:39;6.85;;;3.28;;
49460;SDS011;35355;49.198;-0.368;2023-06-22T08:10:05;7.30;;;2.20;;
49460;SDS011;35355;49.198;-0.368;2023-06-22T08:12:31;8.35;;;2.17;;
49460;SDS011;35355;49.198;-0.368;2023-06-22T08:14:57;9.00;;;2.47;;
49460;SDS011;35355;49.198;-0.368;2023-06-22T08:17:26;5.35;;;2.25;;
49460;SDS011;35355;49.198;-0.368;2023-06-22T08:19:51;7.38;;;3.08;;
49460;SDS011;35355;49.198;-0.368;2023-06-22T08:22:19;6.93;;;2.25;;
49460;SDS011;35355;49.198;-0.368;2023-06-22T08:24:47;8.32;;;2.65;;
49460;SDS011;35355;49.198;-0.368;2023-06-22T08:27:18;8.25;;;2.20;;
49460;SDS011;35355;49.198;-0.368;2023-06-22T08:29:46;4.55;;;1.92;;
49460;SDS011;35355;49.198;-0.368;2023-06-22T08:32:23;8.88;;;1.98;;
49460;SDS011;35355;49.198;-0.368;2023-06-22T08:34:49;9.80;;;2.53;;
49460;SDS011;35355;49.198;-0.368;2023-06-22T08:37:14;5.75;;;2.65;;
49460;SDS011;35355;49.198;-0.368;2023-06-22T08:39:40;8.93;;;2.38;;
49460;SDS011;35355;49.198;-0.368;2023-06-22T08:42:06;7.63;;;2.47;;
49460;SDS011;35355;49.198;-0.368;2023-06-22T08:44:38;5.47;;;2.25;;
49460;SDS011;35355;49.198;-0.368;2023-06-22T08:47:06;6.20;;;2.28;;
49460;SDS011;35355;49.198;-0.368;2023-06-22T08:49:32;9.88;;;2.50;;
49460;SDS011;35355;49.198;-0.368;2023-06-22T08:52:03;5.60;;;2.30;;
49460;SDS011;35355;49.198;-0.368;2023-06-22T08:54:34;7.50;;;2.40;;
49460;SDS011;35355;49.198;-0.368;2023-06-22T08:57:03;7.35;;;2.20;;
49460;SDS011;35355;49.198;-0.368;2023-06-22T08:59:28;6.03;;;2.00;;
49460;SDS011;35355;49.198;-0.368;2023-06-22T09:01:54;9.18;;;2.25;;
49460;SDS011;35355;49.198;-0.368;2023-06-22T09:04:19;7.45;;;2.15;;
49460;SDS011;35355;49.198;-0.368;2023-06-22T09:06:47;12.00;;;3.13;;
49460;SDS011;35355;49.198;-0.368;2023-06-22T09:09:15;4.93;;;1.85;;
49460;SDS011;35355;49.198;-0.368;2023-06-22T09:11:41;3.15;;;1.50;;
49460;SDS011;35355;49.198;-0.368;2023-06-22T09:14:08;15.63;;;4.30;;
49460;SDS011;35355;49.198;-0.368;2023-06-22T09:16:33;10.68;;;2.72;;
49460;SDS011;35355;49.198;-0.368;2023-06-22T09:19:00;5.50;;;2.45;;
49460;SDS011;35355;49.198;-0.368;2023-06-22T09:21:25;9.95;;;2.15;;
49460;SDS011;35355;49.198;-0.368;2023-06-22T09:23:51;8.38;;;2.28;;
49460;SDS011;35355;49.198;-0.368;2023-06-22T09:26:25;3.83;;;1.80;;
49460;SDS011;35355;49.198;-0.368;2023-06-22T09:28:53;3.67;;;1.63;;
49460;SDS011;35355;49.198;-0.368;2023-06-22T09:31:19;7.95;;;1.70;;
49460;SDS011;35355;49.198;-0.368;2023-06-22T09:33:50;6.10;;;1.83;;
49460;SDS011;35355;49.198;-0.368;2023-06-22T09:36:17;9.30;;;2.10;;
49460;SDS011;35355;49.198;-0.368;2023-06-22T09:38:42;10.73;;;2.22;;
49460;SDS011;35355;49.198;-0.368;2023-06-22T09:41:08;8.57;;;2.10;;
49460;SDS011;35355;49.198;-0.368;2023-06-22T09:43:36;6.53;;;1.90;;
49460;SDS011;35355;49.198;-0.368;2023-06-22T09:46:01;8.18;;;2.47;;
49460;SDS011;35355;49.198;-0.368;2023-06-22T09:48:27;5.63;;;1.90;;
49460;SDS011;35355;49.198;-0.368;2023-06-22T09:50:58;6.47;;;1.95;;
49460;SDS011;35355;49.198;-0.368;2023-06-22T09:53:30;11.13;;;2.95;;
49460;SDS011;35355;49.198;-0.368;2023-06-22T09:55:55;5.45;;;2.17;;
49460;SDS011;35355;49.198;-0.368;2023-06-22T09:58:22;4.05;;;1.45;;
49460;SDS011;35355;49.198;-0.368;2023-06-22T10:00:47;9.43;;;2.00;;
49460;SDS011;35355;49.198;-0.368;2023-06-22T10:03:13;9.63;;;2.08;;
49460;SDS011;35355;49.198;-0.368;2023-06-22T10:05:41;4.40;;;1.70;;
49460;SDS011;35355;49.198;-0.368;2023-06-22T10:08:06;3.42;;;1.77;;
49460;SDS011;35355;49.198;-0.368;2023-06-22T10:10:34;4.97;;;1.90;;
49460;SDS011;35355;49.198;-0.368;2023-06-22T10:13:02;5.80;;;1.58;;
49460;SDS011;35355;49.198;-0.368;2023-06-22T10:15:33;5.70;;;1.80;;
49460;SDS011;35355;49.198;-0.368;2023-06-22T10:17:58;4.60;;;1.83;;
49460;SDS011;35355;49.198;-0.368;2023-06-22T10:20:24;5.68;;;1.65;;
49460;SDS011;35355;49.198;-0.368;2023-06-22T10:22:50;4.47;;;1.63;;
49460;SDS011;35355;49.198;-0.368;2023-06-22T10:25:16;5.80;;;1.98;;
49460;SDS011;35355;49.198;-0.368;2023-06-22T10:27:41;6.63;;;2.38;;
49460;SDS011;35355;49.198;-0.368;2023-06-22T10:30:07;5.10;;;1.83;;
49460;SDS011;35355;49.198;-0.368;2023-06-22T10:32:34;5.60;;;1.45;;
49460;SDS011;35355;49.198;-0.368;2023-06-22T10:35:03;6.35;;;1.90;;
49460;SDS011;35355;49.198;-0.368;2023-06-22T10:37:28;5.70;;;1.85;;
49460;SDS011;35355;49.198;-0.368;2023-06-22T10:39:54;8.80;;;1.98;;
49460;SDS011;35355;49.198;-0.368;2023-06-22T10:42:19;3.60;;;2.35;;
49460;SDS011;35355;49.198;-0.368;2023-06-22T10:44:45;4.25;;;1.90;;
49460;SDS011;35355;49.198;-0.368;2023-06-22T10:47:10;5.07;;;1.58;;
49460;SDS011;35355;49.198;-0.368;2023-06-22T10:49:39;5.35;;;1.90;;
49460;SDS011;35355;49.198;-0.368;2023-06-22T10:52:07;4.13;;;1.70;;
49460;SDS011;35355;49.198;-0.368;2023-06-22T10:54:38;5.28;;;2.03;;
49460;SDS011;35355;49.198;-0.368;2023-06-22T10:57:04;4.75;;;1.92;;
49460;SDS011;35355;49.198;-0.368;2023-06-22T10:59:32;4.40;;;1.67;;
49460;SDS011;35355;49.198;-0.368;2023-06-22T11:02:01;6.10;;;2.08;;
49460;SDS011;35355;49.198;-0.368;2023-06-22T11:04:32;4.25;;;1.58;;
49460;SDS011;35355;49.198;-0.368;2023-06-22T11:06:57;4.13;;;1.95;;
49460;SDS011;35355;49.198;-0.368;2023-06-22T11:09:22;7.55;;;2.35;;
49460;SDS011;35355;49.198;-0.368;2023-06-22T11:11:51;4.60;;;2.08;;
49460;SDS011;35355;49.198;-0.368;2023-06-22T11:14:20;6.55;;;2.30;;
49460;SDS011;35355;49.198;-0.368;2023-06-22T11:16:45;7.85;;;2.45;;
49460;SDS011;35355;49.198;-0.368;2023-06-22T11:19:11;6.22;;;2.78;;
49460;SDS011;35355;49.198;-0.368;2023-06-22T11:21:40;3.70;;;2.25;;
49460;SDS011;35355;49.198;-0.368;2023-06-22T11:24:08;6.78;;;1.98;;
49460;SDS011;35355;49.198;-0.368;2023-06-22T11:26:39;4.65;;;2.30;;
49460;SDS011;35355;49.198;-0.368;2023-06-22T11:29:07;4.35;;;2.30;;
49460;SDS011;35355;49.198;-0.368;2023-06-22T11:31:36;6.57;;;2.15;;
49460;SDS011;35355;49.198;-0.368;2023-06-22T11:34:01;2.97;;;1.70;;
49460;SDS011;35355;49.198;-0.368;2023-06-22T11:36:27;7.18;;;2.10;;
49460;SDS011;35355;49.198;-0.368;2023-06-22T11:38:54;4.85;;;3.15;;
49460;SDS011;35355;49.198;-0.368;2023-06-22T11:41:19;5.93;;;2.25;;
49460;SDS011;35355;49.198;-0.368;2023-06-22T11:43:45;9.00;;;2.95;;
49460;SDS011;35355;49.198;-0.368;2023-06-22T11:46:10;6.95;;;2.08;;
49460;SDS011;35355;49.198;-0.368;2023-06-22T11:48:35;6.15;;;2.20;;
49460;SDS011;35355;49.198;-0.368;2023-06-22T11:51:01;5.40;;;2.95;;
49460;SDS011;35355;49.198;-0.368;2023-06-22T11:53:27;9.27;;;1.83;;
49460;SDS011;35355;49.198;-0.368;2023-06-22T11:55:53;4.95;;;2.15;;
49460;SDS011;35355;49.198;-0.368;2023-06-22T11:58:20;5.30;;;1.95;;
49460;SDS011;35355;49.198;-0.368;2023-06-22T12:00:45;4.63;;;1.83;;
49460;SDS011;35355;49.198;-0.368;2023-06-22T12:03:11;3.65;;;1.85;;
49460;SDS011;35355;49.198;-0.368;2023-06-22T12:05:37;6.40;;;1.77;;
49460;SDS011;35355;49.198;-0.368;2023-06-22T12:08:03;2.85;;;1.50;;
49460;SDS011;35355;49.198;-0.368;2023-06-22T12:10:29;3.58;;;1.30;;
49460;SDS011;35355;49.198;-0.368;2023-06-22T12:13:00;3.67;;;1.55;;
49460;SDS011;35355;49.198;-0.368;2023-06-22T12:15:26;3.50;;;1.38;;
49460;SDS011;35355;49.198;-0.368;2023-06-22T12:17:54;3.88;;;1.88;;
49460;SDS011;35355;49.198;-0.368;2023-06-22T12:20:20;3.42;;;1.30;;
49460;SDS011;35355;49.198;-0.368;2023-06-22T12:22:45;1.90;;;1.05;;
49460;SDS011;35355;49.198;-0.368;2023-06-22T12:25:12;3.28;;;1.40;;
49460;SDS011;35355;49.198;-0.368;2023-06-22T12:27:40;2.70;;;1.10;;
49460;SDS011;35355;49.198;-0.368;2023-06-22T12:30:09;3.55;;;1.13;;
49460;SDS011;35355;49.198;-0.368;2023-06-22T12:32:34;3.78;;;1.30;;
49460;SDS011;35355;49.198;-0.368;2023-06-22T12:35:03;2.47;;;1.30;;
49460;SDS011;35355;49.198;-0.368;2023-06-22T12:37:39;8.43;;;2.28;;
49460;SDS011;35355;49.198;-0.368;2023-06-22T12:40:10;4.38;;;1.40;;
49460;SDS011;35355;49.198;-0.368;2023-06-22T12:42:36;6.15;;;1.20;;
49460;SDS011;35355;49.198;-0.368;2023-06-22T12:45:02;7.57;;;1.90;;
49460;SDS011;35355;49.198;-0.368;2023-06-22T12:47:27;2.05;;;1.23;;
49460;SDS011;35355;49.198;-0.368;2023-06-22T12:49:53;5.00;;;1.58;;
49460;SDS011;35355;49.198;-0.368;2023-06-22T12:52:18;3.13;;;1.40;;
49460;SDS011;35355;49.198;-0.368;2023-06-22T12:54:44;2.53;;;1.00;;
49460;SDS011;35355;49.198;-0.368;2023-06-22T12:57:09;3.10;;;1.10;;
49460;SDS011;35355;49.198;-0.368;2023-06-22T12:59:37;2.50;;;1.25;;
49460;SDS011;35355;49.198;-0.368;2023-06-22T13:02:03;3.78;;;1.05;;
49460;SDS011;35355;49.198;-0.368;2023-06-22T13:04:31;5.63;;;1.67;;
49460;SDS011;35355;49.198;-0.368;2023-06-22T13:06:56;1.88;;;1.10;;
49460;SDS011;35355;49.198;-0.368;2023-06-22T13:09:25;2.28;;;1.27;;
49460;SDS011;35355;49.198;-0.368;2023-06-22T13:11:53;2.72;;;1.17;;
49460;SDS011;35355;49.198;-0.368;2023-06-22T13:14:18;1.50;;;0.93;;
49460;SDS011;35355;49.198;-0.368;2023-06-22T13:16:44;2.65;;;1.05;;
49460;SDS011;35355;49.198;-0.368;2023-06-22T13:19:09;3.72;;;1.15;;
49460;SDS011;35355;49.198;-0.368;2023-06-22T13:21:37;6.38;;;1.60;;
49460;SDS011;35355;49.198;-0.368;2023-06-22T13:24:03;10.95;;;2.10;;
49460;SDS011;35355;49.198;-0.368;2023-06-22T13:26:31;1.90;;;1.13;;
49460;SDS011;35355;49.198;-0.368;2023-06-22T13:28:56;4.07;;;1.30;;
49460;SDS011;35355;49.198;-0.368;2023-06-22T13:31:22;4.05;;;1.55;;
49460;SDS011;35355;49.198;-0.368;2023-06-22T13:33:50;3.30;;;1.23;;
49460;SDS011;35355;49.198;-0.368;2023-06-22T13:36:17;2.28;;;1.20;;
49460;SDS011;35355;49.198;-0.368;2023-06-22T13:38:43;5.47;;;1.95;;
49460;SDS011;35355;49.198;-0.368;2023-06-22T13:41:09;4.80;;;1.70;;
49460;SDS011;35355;49.198;-0.368;2023-06-22T13:43:34;5.10;;;1.73;;
49460;SDS011;35355;49.198;-0.368;2023-06-22T13:46:00;2.70;;;1.88;;
49460;SDS011;35355;49.198;-0.368;2023-06-22T13:48:25;5.10;;;1.65;;
49460;SDS011;35355;49.198;-0.368;2023-06-22T13:50:51;3.70;;;1.50;;
49460;SDS011;35355;49.198;-0.368;2023-06-22T13:53:17;4.18;;;1.85;;
49460;SDS011;35355;49.198;-0.368;2023-06-22T13:55:47;8.73;;;1.85;;
49460;SDS011;35355;49.198;-0.368;2023-06-22T13:58:15;2.65;;;1.98;;
49460;SDS011;35355;49.198;-0.368;2023-06-22T14:00:41;3.17;;;1.70;;
49460;SDS011;35355;49.198;-0.368;2023-06-22T14:03:06;5.47;;;2.10;;
49460;SDS011;35355;49.198;-0.368;2023-06-22T14:05:34;5.72;;;1.90;;
49460;SDS011;35355;49.198;-0.368;2023-06-22T14:08:00;4.97;;;1.88;;
49460;SDS011;35355;49.198;-0.368;2023-06-22T14:10:25;2.67;;;1.77;;
49460;SDS011;35355;49.198;-0.368;2023-06-22T14:12:50;4.47;;;2.10;;
49460;SDS011;35355;49.198;-0.368;2023-06-22T14:15:18;4.60;;;2.33;;
49460;SDS011;35355;49.198;-0.368;2023-06-22T14:17:45;3.63;;;2.10;;
49460;SDS011;35355;49.198;-0.368;2023-06-22T14:20:28;3.35;;;2.03;;
49460;SDS011;35355;49.198;-0.368;2023-06-22T14:22:54;2.15;;;1.45;;
49460;SDS011;35355;49.198;-0.368;2023-06-22T14:25:19;4.32;;;2.15;;
49460;SDS011;35355;49.198;-0.368;2023-06-22T14:27:45;3.75;;;1.73;;
49460;SDS011;35355;49.198;-0.368;2023-06-22T14:30:10;9.10;;;2.47;;
49460;SDS011;35355;49.198;-0.368;2023-06-22T14:32:36;5.47;;;2.30;;
49460;SDS011;35355;49.198;-0.368;2023-06-22T14:35:01;3.20;;;2.17;;
49460;SDS011;35355;49.198;-0.368;2023-06-22T14:37:27;7.22;;;2.08;;
49460;SDS011;35355;49.198;-0.368;2023-06-22T14:39:52;5.53;;;2.35;;
49460;SDS011;35355;49.198;-0.368;2023-06-22T14:42:18;8.20;;;2.47;;
49460;SDS011;35355;49.198;-0.368;2023-06-22T14:44:47;9.27;;;2.15;;